Madison, Nebraska
Current Conditions -  °F | °C
As of 2:56 AM on Sunday 26 Oct 2014 (Local Time) from KOFK Reporting Station
Clear Clear  
Wind Chill:   Ceiling: Unl
Heat Index:   Visibility: 10mi
Dew Point:   Wind: 7mph
Humidity: 71%   Direction: 110°ESE
Pressure: 29.93"   Gusts: NA
Location:  41.83°N, 97.46°W
Report Text: KOFK 260756Z AUTO 11006KT 10SM CLR 08/03 A2993 RMK AO2 SLP133 T00830033
Loading
Personal Weather Stations






























Interactive Weather Map
Tropical Storm Tracking
New forecast layout! Learn more

10-Day Weather Forecast

Advertisements
Track Severe Weather on mobile